sensor_id;sensor_type;location;lat;lon;timestamp;temperature;humidity
44729;DHT22;30457;53.590;9.922;2023-06-10T00:02:17;20.90;45.10
44729;DHT22;30457;53.590;9.922;2023-06-10T00:06:46;20.80;45.10
44729;DHT22;30457;53.590;9.922;2023-06-10T00:11:14;20.80;45.70
44729;DHT22;30457;53.590;9.922;2023-06-10T00:15:40;20.70;45.50
44729;DHT22;30457;53.590;9.922;2023-06-10T00:20:09;20.60;45.40
44729;DHT22;30457;53.590;9.922;2023-06-10T00:24:37;20.60;45.50
44729;DHT22;30457;53.590;9.922;2023-06-10T00:29:02;20.50;45.50
44729;DHT22;30457;53.590;9.922;2023-06-10T00:33:28;20.50;45.50
44729;DHT22;30457;53.590;9.922;2023-06-10T00:37:55;20.40;45.80
44729;DHT22;30457;53.590;9.922;2023-06-10T00:42:20;20.30;45.40
44729;DHT22;30457;53.590;9.922;2023-06-10T00:46:47;20.20;45.50
44729;DHT22;30457;53.590;9.922;2023-06-10T00:51:17;20.10;45.60
44729;DHT22;30457;53.590;9.922;2023-06-10T00:55:43;20.10;45.50
44729;DHT22;30457;53.590;9.922;2023-06-10T01:00:10;20.00;45.70
44729;DHT22;30457;53.590;9.922;2023-06-10T01:04:35;19.90;45.70
44729;DHT22;30457;53.590;9.922;2023-06-10T01:09:11;19.80;45.70
44729;DHT22;30457;53.590;9.922;2023-06-10T01:13:41;19.80;46.00
44729;DHT22;30457;53.590;9.922;2023-06-10T01:18:08;19.70;45.90
44729;DHT22;30457;53.590;9.922;2023-06-10T01:22:34;19.70;46.00
44729;DHT22;30457;53.590;9.922;2023-06-10T01:27:05;19.60;45.80
44729;DHT22;30457;53.590;9.922;2023-06-10T01:31:45;19.60;46.20
44729;DHT22;30457;53.590;9.922;2023-06-10T01:36:15;19.50;46.60
44729;DHT22;30457;53.590;9.922;2023-06-10T01:40:42;19.50;46.20
44729;DHT22;30457;53.590;9.922;2023-06-10T01:45:08;19.40;45.90
44729;DHT22;30457;53.590;9.922;2023-06-10T01:49:34;19.30;46.10
44729;DHT22;30457;53.590;9.922;2023-06-10T01:54:00;19.30;46.20
44729;DHT22;30457;53.590;9.922;2023-06-10T01:58:26;19.20;46.30
44729;DHT22;30457;53.590;9.922;2023-06-10T02:02:51;19.10;46.40
44729;DHT22;30457;53.590;9.922;2023-06-10T02:07:17;19.10;46.40
44729;DHT22;30457;53.590;9.922;2023-06-10T02:11:43;19.00;46.40
44729;DHT22;30457;53.590;9.922;2023-06-10T02:16:09;19.00;46.40
44729;DHT22;30457;53.590;9.922;2023-06-10T02:20:38;18.90;46.40
44729;DHT22;30457;53.590;9.922;2023-06-10T02:25:05;18.90;46.30
44729;DHT22;30457;53.590;9.922;2023-06-10T02:29:31;18.90;46.60
44729;DHT22;30457;53.590;9.922;2023-06-10T02:33:56;18.80;46.50
44729;DHT22;30457;53.590;9.922;2023-06-10T02:38:22;18.80;46.60
44729;DHT22;30457;53.590;9.922;2023-06-10T02:42:48;18.80;46.60
44729;DHT22;30457;53.590;9.922;2023-06-10T02:47:14;18.70;46.70
44729;DHT22;30457;53.590;9.922;2023-06-10T02:51:39;18.70;46.80
44729;DHT22;30457;53.590;9.922;2023-06-10T02:56:06;18.60;46.90
44729;DHT22;30457;53.590;9.922;2023-06-10T03:00:32;18.60;46.80
44729;DHT22;30457;53.590;9.922;2023-06-10T03:04:59;18.60;46.80
44729;DHT22;30457;53.590;9.922;2023-06-10T03:09:24;18.50;47.00
44729;DHT22;30457;53.590;9.922;2023-06-10T03:13:54;18.50;47.10
44729;DHT22;30457;53.590;9.922;2023-06-10T03:18:21;18.50;47.00
44729;DHT22;30457;53.590;9.922;2023-06-10T03:22:48;18.50;47.10
44729;DHT22;30457;53.590;9.922;2023-06-10T03:27:14;18.50;47.20
44729;DHT22;30457;53.590;9.922;2023-06-10T03:31:43;18.40;47.20
44729;DHT22;30457;53.590;9.922;2023-06-10T03:36:09;18.40;47.30
44729;DHT22;30457;53.590;9.922;2023-06-10T03:40:36;18.40;47.40
44729;DHT22;30457;53.590;9.922;2023-06-10T03:45:02;18.40;47.50
44729;DHT22;30457;53.590;9.922;2023-06-10T03:49:30;18.40;47.70
44729;DHT22;30457;53.590;9.922;2023-06-10T03:53:59;18.40;47.40
44729;DHT22;30457;53.590;9.922;2023-06-10T03:58:25;18.40;47.40
44729;DHT22;30457;53.590;9.922;2023-06-10T04:02:51;18.40;48.10
44729;DHT22;30457;53.590;9.922;2023-06-10T04:07:31;18.50;47.80
44729;DHT22;30457;53.590;9.922;2023-06-10T04:11:58;18.50;47.90
44729;DHT22;30457;53.590;9.922;2023-06-10T04:16:24;18.50;48.00
44729;DHT22;30457;53.590;9.922;2023-06-10T04:20:50;18.50;48.10
44729;DHT22;30457;53.590;9.922;2023-06-10T04:25:16;18.60;48.20
44729;DHT22;30457;53.590;9.922;2023-06-10T04:29:43;18.60;48.40
44729;DHT22;30457;53.590;9.922;2023-06-10T04:34:08;18.70;48.60
44729;DHT22;30457;53.590;9.922;2023-06-10T04:38:34;18.80;48.60
44729;DHT22;30457;53.590;9.922;2023-06-10T04:43:00;18.90;48.70
44729;DHT22;30457;53.590;9.922;2023-06-10T04:47:26;19.00;48.70
44729;DHT22;30457;53.590;9.922;2023-06-10T04:51:52;19.10;48.90
44729;DHT22;30457;53.590;9.922;2023-06-10T04:56:18;19.20;49.00
44729;DHT22;30457;53.590;9.922;2023-06-10T05:00:44;19.40;48.70
44729;DHT22;30457;53.590;9.922;2023-06-10T05:05:10;19.50;49.00
44729;DHT22;30457;53.590;9.922;2023-06-10T05:09:35;19.60;49.00
44729;DHT22;30457;53.590;9.922;2023-06-10T05:14:01;19.70;49.00
44729;DHT22;30457;53.590;9.922;2023-06-10T05:18:27;19.80;49.30
44729;DHT22;30457;53.590;9.922;2023-06-10T05:22:52;19.90;48.70
44729;DHT22;30457;53.590;9.922;2023-06-10T05:27:18;20.10;48.50
44729;DHT22;30457;53.590;9.922;2023-06-10T05:31:43;20.20;48.50
44729;DHT22;30457;53.590;9.922;2023-06-10T05:36:09;20.30;48.50
44729;DHT22;30457;53.590;9.922;2023-06-10T05:40:35;20.40;48.40
44729;DHT22;30457;53.590;9.922;2023-06-10T05:45:01;20.60;48.00
44729;DHT22;30457;53.590;9.922;2023-06-10T05:49:27;20.70;47.90
44729;DHT22;30457;53.590;9.922;2023-06-10T05:53:53;20.90;47.80
44729;DHT22;30457;53.590;9.922;2023-06-10T05:58:19;21.00;47.60
44729;DHT22;30457;53.590;9.922;2023-06-10T06:02:45;21.10;47.60
44729;DHT22;30457;53.590;9.922;2023-06-10T06:07:10;21.30;47.60
44729;DHT22;30457;53.590;9.922;2023-06-10T06:11:36;21.40;47.90
44729;DHT22;30457;53.590;9.922;2023-06-10T06:16:02;21.60;47.00
44729;DHT22;30457;53.590;9.922;2023-06-10T06:20:27;21.70;47.00
44729;DHT22;30457;53.590;9.922;2023-06-10T06:24:53;21.90;46.90
44729;DHT22;30457;53.590;9.922;2023-06-10T06:29:18;22.10;46.40
44729;DHT22;30457;53.590;9.922;2023-06-10T06:33:44;22.30;46.00
44729;DHT22;30457;53.590;9.922;2023-06-10T06:38:09;22.40;45.80
44729;DHT22;30457;53.590;9.922;2023-06-10T06:42:35;22.50;45.60
44729;DHT22;30457;53.590;9.922;2023-06-10T06:47:16;22.60;45.30
44729;DHT22;30457;53.590;9.922;2023-06-10T06:51:45;22.80;45.10
44729;DHT22;30457;53.590;9.922;2023-06-10T06:56:11;23.00;45.30
44729;DHT22;30457;53.590;9.922;2023-06-10T07:00:37;23.10;44.80
44729;DHT22;30457;53.590;9.922;2023-06-10T07:05:03;23.20;45.00
44729;DHT22;30457;53.590;9.922;2023-06-10T07:09:28;23.30;44.30
44729;DHT22;30457;53.590;9.922;2023-06-10T07:13:54;23.50;44.40
44729;DHT22;30457;53.590;9.922;2023-06-10T07:18:20;23.70;44.10
44729;DHT22;30457;53.590;9.922;2023-06-10T07:22:45;23.80;44.00
44729;DHT22;30457;53.590;9.922;2023-06-10T07:27:11;24.00;43.80
44729;DHT22;30457;53.590;9.922;2023-06-10T07:31:37;24.10;43.80
44729;DHT22;30457;53.590;9.922;2023-06-10T07:36:02;24.30;43.20
44729;DHT22;30457;53.590;9.922;2023-06-10T07:40:28;24.50;43.10
44729;DHT22;30457;53.590;9.922;2023-06-10T07:44:54;24.70;42.80
44729;DHT22;30457;53.590;9.922;2023-06-10T07:49:19;24.80;42.60
44729;DHT22;30457;53.590;9.922;2023-06-10T07:53:45;25.00;42.40
44729;DHT22;30457;53.590;9.922;2023-06-10T07:58:10;25.20;42.30
44729;DHT22;30457;53.590;9.922;2023-06-10T08:02:36;25.40;42.30
44729;DHT22;30457;53.590;9.922;2023-06-10T08:07:03;25.60;41.90
44729;DHT22;30457;53.590;9.922;2023-06-10T08:11:28;25.80;42.60
44729;DHT22;30457;53.590;9.922;2023-06-10T08:15:55;26.00;41.50
44729;DHT22;30457;53.590;9.922;2023-06-10T08:20:20;26.20;41.40
44729;DHT22;30457;53.590;9.922;2023-06-10T08:24:46;26.50;41.30
44729;DHT22;30457;53.590;9.922;2023-06-10T08:29:12;26.70;40.40
44729;DHT22;30457;53.590;9.922;2023-06-10T08:33:37;26.90;40.20
44729;DHT22;30457;53.590;9.922;2023-06-10T08:38:03;27.10;39.90
44729;DHT22;30457;53.590;9.922;2023-06-10T08:42:42;27.30;39.30
44729;DHT22;30457;53.590;9.922;2023-06-10T08:47:14;27.50;38.60
44729;DHT22;30457;53.590;9.922;2023-06-10T08:51:41;27.70;39.20
44729;DHT22;30457;53.590;9.922;2023-06-10T08:56:08;27.90;39.00
44729;DHT22;30457;53.590;9.922;2023-06-10T09:00:34;28.10;38.70
44729;DHT22;30457;53.590;9.922;2023-06-10T09:05:00;28.30;38.60
44729;DHT22;30457;53.590;9.922;2023-06-10T09:09:28;28.50;38.30
44729;DHT22;30457;53.590;9.922;2023-06-10T09:13:55;28.70;37.60
44729;DHT22;30457;53.590;9.922;2023-06-10T09:18:22;28.80;37.50
44729;DHT22;30457;53.590;9.922;2023-06-10T09:22:48;29.00;36.90
44729;DHT22;30457;53.590;9.922;2023-06-10T09:27:14;29.10;37.30
44729;DHT22;30457;53.590;9.922;2023-06-10T09:31:40;29.30;37.40
44729;DHT22;30457;53.590;9.922;2023-06-10T09:36:09;29.40;37.00
44729;DHT22;30457;53.590;9.922;2023-06-10T09:40:48;29.60;36.50
44729;DHT22;30457;53.590;9.922;2023-06-10T09:45:14;29.80;35.70
44729;DHT22;30457;53.590;9.922;2023-06-10T09:49:40;30.00;36.10
44729;DHT22;30457;53.590;9.922;2023-06-10T09:54:05;30.10;36.00
44729;DHT22;30457;53.590;9.922;2023-06-10T09:58:40;30.30;35.50
44729;DHT22;30457;53.590;9.922;2023-06-10T10:03:08;30.50;35.60
44729;DHT22;30457;53.590;9.922;2023-06-10T10:07:34;30.70;34.90
44729;DHT22;30457;53.590;9.922;2023-06-10T10:12:01;30.80;34.30
44729;DHT22;30457;53.590;9.922;2023-06-10T10:16:35;31.00;34.40
44729;DHT22;30457;53.590;9.922;2023-06-10T10:21:07;31.20;34.90
44729;DHT22;30457;53.590;9.922;2023-06-10T10:25:37;31.40;34.40
44729;DHT22;30457;53.590;9.922;2023-06-10T10:30:05;31.50;34.00
44729;DHT22;30457;53.590;9.922;2023-06-10T10:34:40;31.60;34.10
44729;DHT22;30457;53.590;9.922;2023-06-10T10:39:07;31.80;33.60
44729;DHT22;30457;53.590;9.922;2023-06-10T10:43:34;31.90;33.40
44729;DHT22;30457;53.590;9.922;2023-06-10T10:48:05;32.00;33.00
44729;DHT22;30457;53.590;9.922;2023-06-10T10:52:52;32.10;32.40
44729;DHT22;30457;53.590;9.922;2023-06-10T10:57:19;32.20;32.30
44729;DHT22;30457;53.590;9.922;2023-06-10T11:01:45;32.40;33.10
44729;DHT22;30457;53.590;9.922;2023-06-10T11:06:16;32.40;32.70
44729;DHT22;30457;53.590;9.922;2023-06-10T11:10:51;32.60;32.70
44729;DHT22;30457;53.590;9.922;2023-06-10T11:15:19;32.70;32.10
44729;DHT22;30457;53.590;9.922;2023-06-10T11:19:45;32.80;31.80
44729;DHT22;30457;53.590;9.922;2023-06-10T11:24:12;32.80;32.30
44729;DHT22;30457;53.590;9.922;2023-06-10T11:33:17;33.00;31.80
44729;DHT22;30457;53.590;9.922;2023-06-10T11:37:43;33.10;31.50
44729;DHT22;30457;53.590;9.922;2023-06-10T11:42:09;33.10;32.10
44729;DHT22;30457;53.590;9.922;2023-06-10T11:46:35;33.30;31.40
44729;DHT22;30457;53.590;9.922;2023-06-10T11:51:00;33.40;31.90
44729;DHT22;30457;53.590;9.922;2023-06-10T11:55:45;33.60;31.40
44729;DHT22;30457;53.590;9.922;2023-06-10T12:00:11;33.70;31.40
44729;DHT22;30457;53.590;9.922;2023-06-10T12:04:41;33.90;32.20
44729;DHT22;30457;53.590;9.922;2023-06-10T12:09:34;34.00;31.60
44729;DHT22;30457;53.590;9.922;2023-06-10T12:13:59;34.20;30.60
44729;DHT22;30457;53.590;9.922;2023-06-10T12:18:24;34.40;31.10
44729;DHT22;30457;53.590;9.922;2023-06-10T12:22:50;34.60;30.80
44729;DHT22;30457;53.590;9.922;2023-06-10T12:27:18;34.70;30.60
44729;DHT22;30457;53.590;9.922;2023-06-10T12:36:24;35.00;30.40
44729;DHT22;30457;53.590;9.922;2023-06-10T12:40:50;35.10;30.00
44729;DHT22;30457;53.590;9.922;2023-06-10T12:45:26;35.20;29.40
44729;DHT22;30457;53.590;9.922;2023-06-10T12:49:54;35.30;29.20
44729;DHT22;30457;53.590;9.922;2023-06-10T12:54:20;35.40;29.20
44729;DHT22;30457;53.590;9.922;2023-06-10T12:58:46;35.40;29.20
44729;DHT22;30457;53.590;9.922;2023-06-10T13:03:12;35.40;29.30
44729;DHT22;30457;53.590;9.922;2023-06-10T13:07:37;35.50;28.90
44729;DHT22;30457;53.590;9.922;2023-06-10T13:12:04;35.70;29.00
44729;DHT22;30457;53.590;9.922;2023-06-10T13:16:33;35.80;29.00
44729;DHT22;30457;53.590;9.922;2023-06-10T13:20:58;35.90;28.60
44729;DHT22;30457;53.590;9.922;2023-06-10T13:25:24;36.00;28.60
44729;DHT22;30457;53.590;9.922;2023-06-10T13:29:50;36.20;28.50
44729;DHT22;30457;53.590;9.922;2023-06-10T13:34:15;36.30;28.40
44729;DHT22;30457;53.590;9.922;2023-06-10T13:38:41;36.30;28.20
44729;DHT22;30457;53.590;9.922;2023-06-10T13:43:07;36.40;28.60
44729;DHT22;30457;53.590;9.922;2023-06-10T13:47:35;36.50;28.50
44729;DHT22;30457;53.590;9.922;2023-06-10T13:52:00;36.60;28.30
44729;DHT22;30457;53.590;9.922;2023-06-10T14:00:57;36.70;28.00
44729;DHT22;30457;53.590;9.922;2023-06-10T14:05:24;36.70;28.00
44729;DHT22;30457;53.590;9.922;2023-06-10T14:09:49;36.70;27.80
44729;DHT22;30457;53.590;9.922;2023-06-10T14:14:16;36.70;28.90
44729;DHT22;30457;53.590;9.922;2023-06-10T14:18:42;36.70;28.50
44729;DHT22;30457;53.590;9.922;2023-06-10T14:23:08;36.70;28.10
44729;DHT22;30457;53.590;9.922;2023-06-10T14:27:33;36.60;28.80
44729;DHT22;30457;53.590;9.922;2023-06-10T14:31:59;36.50;28.50
44729;DHT22;30457;53.590;9.922;2023-06-10T14:36:25;36.50;28.30
44729;DHT22;30457;53.590;9.922;2023-06-10T14:40:51;36.50;28.30
44729;DHT22;30457;53.590;9.922;2023-06-10T14:45:17;36.40;28.00
44729;DHT22;30457;53.590;9.922;2023-06-10T14:49:43;36.30;28.50
44729;DHT22;30457;53.590;9.922;2023-06-10T14:54:09;36.30;28.40
44729;DHT22;30457;53.590;9.922;2023-06-10T14:58:34;36.30;28.30
44729;DHT22;30457;53.590;9.922;2023-06-10T15:03:00;36.30;28.50
44729;DHT22;30457;53.590;9.922;2023-06-10T15:07:26;36.30;28.00
44729;DHT22;30457;53.590;9.922;2023-06-10T15:11:51;36.30;27.90
44729;DHT22;30457;53.590;9.922;2023-06-10T15:16:17;36.20;28.10
44729;DHT22;30457;53.590;9.922;2023-06-10T15:20:42;36.20;28.10
44729;DHT22;30457;53.590;9.922;2023-06-10T15:25:08;36.30;28.00
44729;DHT22;30457;53.590;9.922;2023-06-10T15:29:34;36.30;28.00
44729;DHT22;30457;53.590;9.922;2023-06-10T15:33:59;36.20;27.20
44729;DHT22;30457;53.590;9.922;2023-06-10T15:38:25;36.00;27.20
44729;DHT22;30457;53.590;9.922;2023-06-10T15:42:51;35.80;27.10
44729;DHT22;30457;53.590;9.922;2023-06-10T15:47:16;35.50;27.30
44729;DHT22;30457;53.590;9.922;2023-06-10T15:51:42;35.30;27.80
44729;DHT22;30457;53.590;9.922;2023-06-10T15:56:07;35.20;27.70
44729;DHT22;30457;53.590;9.922;2023-06-10T16:00:33;35.00;28.00
44729;DHT22;30457;53.590;9.922;2023-06-10T16:04:58;35.00;28.10
44729;DHT22;30457;53.590;9.922;2023-06-10T16:09:24;35.00;28.10
44729;DHT22;30457;53.590;9.922;2023-06-10T16:13:50;34.90;28.00
44729;DHT22;30457;53.590;9.922;2023-06-10T16:18:15;34.70;27.90
44729;DHT22;30457;53.590;9.922;2023-06-10T16:22:41;34.60;28.20
44729;DHT22;30457;53.590;9.922;2023-06-10T16:27:06;34.40;27.90
44729;DHT22;30457;53.590;9.922;2023-06-10T16:31:32;34.10;28.10
44729;DHT22;30457;53.590;9.922;2023-06-10T16:35:58;33.90;28.30
44729;DHT22;30457;53.590;9.922;2023-06-10T16:40:23;33.70;28.40
44729;DHT22;30457;53.590;9.922;2023-06-10T16:44:49;33.50;28.90
44729;DHT22;30457;53.590;9.922;2023-06-10T16:49:14;33.40;28.90
44729;DHT22;30457;53.590;9.922;2023-06-10T16:53:40;33.30;28.90
44729;DHT22;30457;53.590;9.922;2023-06-10T16:58:06;33.20;29.20
44729;DHT22;30457;53.590;9.922;2023-06-10T17:02:31;33.30;29.30
44729;DHT22;30457;53.590;9.922;2023-06-10T17:06:57;33.30;29.50
44729;DHT22;30457;53.590;9.922;2023-06-10T17:11:22;33.40;29.50
44729;DHT22;30457;53.590;9.922;2023-06-10T17:15:48;33.50;29.30
44729;DHT22;30457;53.590;9.922;2023-06-10T17:20:14;33.40;29.20
44729;DHT22;30457;53.590;9.922;2023-06-10T17:24:39;33.30;28.90
44729;DHT22;30457;53.590;9.922;2023-06-10T17:29:07;33.00;28.90
44729;DHT22;30457;53.590;9.922;2023-06-10T17:33:32;32.70;29.10
44729;DHT22;30457;53.590;9.922;2023-06-10T17:37:58;32.40;29.40
44729;DHT22;30457;53.590;9.922;2023-06-10T17:42:23;32.10;29.70
44729;DHT22;30457;53.590;9.922;2023-06-10T17:46:50;31.90;30.00
44729;DHT22;30457;53.590;9.922;2023-06-10T17:51:16;31.60;30.20
44729;DHT22;30457;53.590;9.922;2023-06-10T17:55:41;31.40;30.60
44729;DHT22;30457;53.590;9.922;2023-06-10T18:00:07;31.30;30.90
44729;DHT22;30457;53.590;9.922;2023-06-10T18:04:33;31.00;31.00
44729;DHT22;30457;53.590;9.922;2023-06-10T18:08:59;30.90;31.30
44729;DHT22;30457;53.590;9.922;2023-06-10T18:13:24;30.70;31.40
44729;DHT22;30457;53.590;9.922;2023-06-10T18:17:50;30.50;31.60
44729;DHT22;30457;53.590;9.922;2023-06-10T18:22:16;30.30;31.80
44729;DHT22;30457;53.590;9.922;2023-06-10T18:26:41;30.20;31.80
44729;DHT22;30457;53.590;9.922;2023-06-10T18:31:07;30.00;32.00
44729;DHT22;30457;53.590;9.922;2023-06-10T18:35:32;29.90;32.20
44729;DHT22;30457;53.590;9.922;2023-06-10T18:39:58;29.80;32.40
44729;DHT22;30457;53.590;9.922;2023-06-10T18:44:23;29.70;32.50
44729;DHT22;30457;53.590;9.922;2023-06-10T18:48:50;29.50;32.60
44729;DHT22;30457;53.590;9.922;2023-06-10T18:53:15;29.40;32.70
44729;DHT22;30457;53.590;9.922;2023-06-10T18:57:41;29.20;32.80
44729;DHT22;30457;53.590;9.922;2023-06-10T19:02:06;29.10;33.00
44729;DHT22;30457;53.590;9.922;2023-06-10T19:06:32;29.00;33.10
44729;DHT22;30457;53.590;9.922;2023-06-10T19:10:58;28.80;33.20
44729;DHT22;30457;53.590;9.922;2023-06-10T19:15:24;28.70;34.00
44729;DHT22;30457;53.590;9.922;2023-06-10T19:19:49;28.60;33.50
44729;DHT22;30457;53.590;9.922;2023-06-10T19:24:16;28.50;33.70
44729;DHT22;30457;53.590;9.922;2023-06-10T19:28:42;28.40;33.90
44729;DHT22;30457;53.590;9.922;2023-06-10T19:33:07;28.20;33.90
44729;DHT22;30457;53.590;9.922;2023-06-10T19:37:33;28.10;34.20
44729;DHT22;30457;53.590;9.922;2023-06-10T19:41:58;28.00;34.20
44729;DHT22;30457;53.590;9.922;2023-06-10T19:46:24;27.90;34.30
44729;DHT22;30457;53.590;9.922;2023-06-10T19:50:50;27.80;34.50
44729;DHT22;30457;53.590;9.922;2023-06-10T19:55:15;27.60;34.50
44729;DHT22;30457;53.590;9.922;2023-06-10T19:59:42;27.50;34.70
44729;DHT22;30457;53.590;9.922;2023-06-10T20:04:07;27.40;34.70
44729;DHT22;30457;53.590;9.922;2023-06-10T20:08:34;27.20;34.80
44729;DHT22;30457;53.590;9.922;2023-06-10T20:13:00;27.10;35.10
44729;DHT22;30457;53.590;9.922;2023-06-10T20:17:26;27.00;35.20
44729;DHT22;30457;53.590;9.922;2023-06-10T20:21:52;26.90;35.10
44729;DHT22;30457;53.590;9.922;2023-06-10T20:26:17;26.80;35.20
44729;DHT22;30457;53.590;9.922;2023-06-10T20:30:44;26.70;35.00
44729;DHT22;30457;53.590;9.922;2023-06-10T20:35:10;26.70;34.80
44729;DHT22;30457;53.590;9.922;2023-06-10T20:39:36;26.60;35.20
44729;DHT22;30457;53.590;9.922;2023-06-10T20:44:01;26.50;34.50
44729;DHT22;30457;53.590;9.922;2023-06-10T20:48:27;26.40;34.30
44729;DHT22;30457;53.590;9.922;2023-06-10T20:52:52;26.40;33.80
44729;DHT22;30457;53.590;9.922;2023-06-10T20:57:18;26.30;33.80
44729;DHT22;30457;53.590;9.922;2023-06-10T21:01:44;26.20;34.00
44729;DHT22;30457;53.590;9.922;2023-06-10T21:06:10;26.10;34.20
44729;DHT22;30457;53.590;9.922;2023-06-10T21:10:36;26.10;34.10
44729;DHT22;30457;53.590;9.922;2023-06-10T21:15:02;26.00;33.90
44729;DHT22;30457;53.590;9.922;2023-06-10T21:19:27;25.90;33.40
44729;DHT22;30457;53.590;9.922;2023-06-10T21:23:53;25.80;33.50
44729;DHT22;30457;53.590;9.922;2023-06-10T21:28:19;25.70;33.30
44729;DHT22;30457;53.590;9.922;2023-06-10T21:32:45;25.60;33.20
44729;DHT22;30457;53.590;9.922;2023-06-10T21:37:11;25.50;32.90
44729;DHT22;30457;53.590;9.922;2023-06-10T21:41:36;25.40;32.80
44729;DHT22;30457;53.590;9.922;2023-06-10T21:46:02;25.30;33.50
44729;DHT22;30457;53.590;9.922;2023-06-10T21:50:28;25.20;32.60
44729;DHT22;30457;53.590;9.922;2023-06-10T21:54:54;25.20;32.70
44729;DHT22;30457;53.590;9.922;2023-06-10T21:59:20;25.00;32.80
44729;DHT22;30457;53.590;9.922;2023-06-10T22:03:47;25.00;32.70
44729;DHT22;30457;53.590;9.922;2023-06-10T22:08:13;24.90;32.80
44729;DHT22;30457;53.590;9.922;2023-06-10T22:12:39;24.80;32.80
44729;DHT22;30457;53.590;9.922;2023-06-10T22:17:04;24.70;32.90
44729;DHT22;30457;53.590;9.922;2023-06-10T22:21:30;24.60;32.70
44729;DHT22;30457;53.590;9.922;2023-06-10T22:25:55;24.50;32.90
44729;DHT22;30457;53.590;9.922;2023-06-10T22:30:21;24.50;32.80
44729;DHT22;30457;53.590;9.922;2023-06-10T22:34:47;24.30;32.80
44729;DHT22;30457;53.590;9.922;2023-06-10T22:39:12;24.30;32.70
44729;DHT22;30457;53.590;9.922;2023-06-10T22:43:38;24.20;33.00
44729;DHT22;30457;53.590;9.922;2023-06-10T22:48:03;24.10;33.00
44729;DHT22;30457;53.590;9.922;2023-06-10T22:52:29;24.00;33.10
44729;DHT22;30457;53.590;9.922;2023-06-10T22:56:55;23.90;33.10
44729;DHT22;30457;53.590;9.922;2023-06-10T23:01:20;23.80;33.00
44729;DHT22;30457;53.590;9.922;2023-06-10T23:05:46;23.80;33.00
44729;DHT22;30457;53.590;9.922;2023-06-10T23:10:12;23.70;33.10
44729;DHT22;30457;53.590;9.922;2023-06-10T23:14:38;23.60;33.00
44729;DHT22;30457;53.590;9.922;2023-06-10T23:19:03;23.60;33.00
44729;DHT22;30457;53.590;9.922;2023-06-10T23:23:29;23.50;32.90
44729;DHT22;30457;53.590;9.922;2023-06-10T23:27:58;23.40;33.00
44729;DHT22;30457;53.590;9.922;2023-06-10T23:32:24;23.30;33.20
44729;DHT22;30457;53.590;9.922;2023-06-10T23:36:50;23.10;33.10
44729;DHT22;30457;53.590;9.922;2023-06-10T23:41:17;23.00;33.10
44729;DHT22;30457;53.590;9.922;2023-06-10T23:45:42;22.90;33.30
44729;DHT22;30457;53.590;9.922;2023-06-10T23:50:08;22.80;33.50
44729;DHT22;30457;53.590;9.922;2023-06-10T23:54:34;22.70;33.50
44729;DHT22;30457;53.590;9.922;2023-06-10T23:59:00;22.60;33.50
